sensor_id;sensor_type;location;lat;lon;timestamp;P1;durP1;ratioP1;P2;durP2;ratioP2
51467;SDS011;37545;45.302;-122.946;2023-09-19T00:00:42;5.32;;;1.10;;
51467;SDS011;37545;45.302;-122.946;2023-09-19T00:03:12;7.70;;;1.83;;
51467;SDS011;37545;45.302;-122.946;2023-09-19T00:05:41;9.00;;;1.55;;
51467;SDS011;37545;45.302;-122.946;2023-09-19T00:08:10;5.57;;;1.38;;
51467;SDS011;37545;45.302;-122.946;2023-09-19T00:10:42;10.35;;;1.30;;
51467;SDS011;37545;45.302;-122.946;2023-09-19T00:13:11;6.57;;;1.55;;
51467;SDS011;37545;45.302;-122.946;2023-09-19T00:15:41;4.50;;;1.30;;
51467;SDS011;37545;45.302;-122.946;2023-09-19T00:18:14;7.25;;;1.45;;
51467;SDS011;37545;45.302;-122.946;2023-09-19T00:20:43;7.63;;;1.58;;
51467;SDS011;37545;45.302;-122.946;2023-09-19T00:25:44;6.30;;;1.45;;
51467;SDS011;37545;45.302;-122.946;2023-09-19T00:28:24;5.93;;;1.48;;
51467;SDS011;37545;45.302;-122.946;2023-09-19T00:30:53;4.63;;;1.40;;
51467;SDS011;37545;45.302;-122.946;2023-09-19T00:33:22;6.95;;;1.45;;
51467;SDS011;37545;45.302;-122.946;2023-09-19T00:35:51;5.32;;;1.52;;
51467;SDS011;37545;45.302;-122.946;2023-09-19T00:38:24;6.90;;;1.50;;
51467;SDS011;37545;45.302;-122.946;2023-09-19T00:40:55;4.60;;;1.30;;
51467;SDS011;37545;45.302;-122.946;2023-09-19T00:43:25;6.30;;;1.25;;
51467;SDS011;37545;45.302;-122.946;2023-09-19T00:45:55;10.43;;;1.80;;
51467;SDS011;37545;45.302;-122.946;2023-09-19T00:48:26;10.25;;;1.98;;
51467;SDS011;37545;45.302;-122.946;2023-09-19T00:50:55;8.25;;;1.95;;
51467;SDS011;37545;45.302;-122.946;2023-09-19T00:53:27;4.80;;;1.80;;
51467;SDS011;37545;45.302;-122.946;2023-09-19T00:56:01;6.18;;;1.30;;
51467;SDS011;37545;45.302;-122.946;2023-09-19T00:58:36;5.53;;;1.52;;
51467;SDS011;37545;45.302;-122.946;2023-09-19T01:01:05;6.32;;;1.95;;
51467;SDS011;37545;45.302;-122.946;2023-09-19T01:03:37;6.90;;;1.40;;
51467;SDS011;37545;45.302;-122.946;2023-09-19T01:06:06;8.20;;;1.50;;
51467;SDS011;37545;45.302;-122.946;2023-09-19T01:08:35;6.38;;;1.40;;
51467;SDS011;37545;45.302;-122.946;2023-09-19T01:11:13;6.88;;;2.33;;
51467;SDS011;37545;45.302;-122.946;2023-09-19T01:13:56;8.27;;;1.90;;
51467;SDS011;37545;45.302;-122.946;2023-09-19T01:16:32;5.10;;;1.42;;
51467;SDS011;37545;45.302;-122.946;2023-09-19T01:19:23;6.13;;;1.48;;
51467;SDS011;37545;45.302;-122.946;2023-09-19T01:22:23;3.20;;;1.05;;
51467;SDS011;37545;45.302;-122.946;2023-09-19T01:25:11;9.20;;;2.28;;
51467;SDS011;37545;45.302;-122.946;2023-09-19T01:28:06;7.05;;;1.52;;
51467;SDS011;37545;45.302;-122.946;2023-09-19T01:30:51;5.63;;;1.20;;
51467;SDS011;37545;45.302;-122.946;2023-09-19T01:33:26;6.10;;;1.60;;
51467;SDS011;37545;45.302;-122.946;2023-09-19T01:36:00;8.20;;;1.40;;
51467;SDS011;37545;45.302;-122.946;2023-09-19T01:38:29;10.93;;;1.27;;
51467;SDS011;37545;45.302;-122.946;2023-09-19T01:41:00;5.80;;;1.17;;
51467;SDS011;37545;45.302;-122.946;2023-09-19T01:43:36;7.25;;;2.08;;
51467;SDS011;37545;45.302;-122.946;2023-09-19T01:46:12;5.72;;;1.60;;
51467;SDS011;37545;45.302;-122.946;2023-09-19T01:48:51;3.30;;;1.08;;
51467;SDS011;37545;45.302;-122.946;2023-09-19T01:51:31;7.22;;;1.63;;
51467;SDS011;37545;45.302;-122.946;2023-09-19T01:54:08;5.78;;;2.10;;
51467;SDS011;37545;45.302;-122.946;2023-09-19T01:56:42;7.15;;;1.58;;
51467;SDS011;37545;45.302;-122.946;2023-09-19T01:59:17;8.05;;;1.52;;
51467;SDS011;37545;45.302;-122.946;2023-09-19T02:01:54;7.10;;;1.25;;
51467;SDS011;37545;45.302;-122.946;2023-09-19T02:04:23;5.15;;;1.25;;
51467;SDS011;37545;45.302;-122.946;2023-09-19T02:06:52;7.35;;;1.77;;
51467;SDS011;37545;45.302;-122.946;2023-09-19T02:09:21;4.07;;;1.42;;
51467;SDS011;37545;45.302;-122.946;2023-09-19T02:11:53;6.85;;;1.10;;
51467;SDS011;37545;45.302;-122.946;2023-09-19T02:14:22;6.60;;;1.48;;
51467;SDS011;37545;45.302;-122.946;2023-09-19T02:16:54;4.80;;;1.40;;
51467;SDS011;37545;45.302;-122.946;2023-09-19T02:19:27;5.60;;;1.40;;
51467;SDS011;37545;45.302;-122.946;2023-09-19T02:21:59;8.98;;;2.33;;
51467;SDS011;37545;45.302;-122.946;2023-09-19T02:24:29;6.45;;;1.95;;
51467;SDS011;37545;45.302;-122.946;2023-09-19T02:26:57;9.82;;;2.50;;
51467;SDS011;37545;45.302;-122.946;2023-09-19T02:29:29;7.22;;;2.45;;
51467;SDS011;37545;45.302;-122.946;2023-09-19T02:31:59;9.55;;;3.00;;
51467;SDS011;37545;45.302;-122.946;2023-09-19T02:34:29;10.07;;;3.22;;
51467;SDS011;37545;45.302;-122.946;2023-09-19T02:36:58;7.35;;;2.85;;
51467;SDS011;37545;45.302;-122.946;2023-09-19T02:39:29;5.90;;;1.67;;
51467;SDS011;37545;45.302;-122.946;2023-09-19T02:41:57;5.72;;;1.35;;
51467;SDS011;37545;45.302;-122.946;2023-09-19T02:44:26;6.07;;;1.08;;
51467;SDS011;37545;45.302;-122.946;2023-09-19T02:46:54;3.92;;;0.98;;
51467;SDS011;37545;45.302;-122.946;2023-09-19T02:49:25;5.93;;;1.15;;
51467;SDS011;37545;45.302;-122.946;2023-09-19T02:51:53;3.47;;;1.17;;
51467;SDS011;37545;45.302;-122.946;2023-09-19T02:54:24;5.00;;;1.08;;
51467;SDS011;37545;45.302;-122.946;2023-09-19T02:56:53;5.30;;;1.42;;
51467;SDS011;37545;45.302;-122.946;2023-09-19T02:59:22;3.03;;;0.93;;
51467;SDS011;37545;45.302;-122.946;2023-09-19T03:01:51;4.53;;;0.82;;
51467;SDS011;37545;45.302;-122.946;2023-09-19T03:04:21;4.50;;;0.85;;
51467;SDS011;37545;45.302;-122.946;2023-09-19T03:06:51;3.42;;;1.30;;
51467;SDS011;37545;45.302;-122.946;2023-09-19T03:09:24;4.60;;;1.17;;
51467;SDS011;37545;45.302;-122.946;2023-09-19T03:11:53;7.22;;;1.27;;
51467;SDS011;37545;45.302;-122.946;2023-09-19T03:14:23;10.20;;;1.45;;
51467;SDS011;37545;45.302;-122.946;2023-09-19T03:16:55;6.80;;;1.30;;
51467;SDS011;37545;45.302;-122.946;2023-09-19T03:19:25;3.75;;;0.80;;
51467;SDS011;37545;45.302;-122.946;2023-09-19T03:22:07;9.15;;;1.45;;
51467;SDS011;37545;45.302;-122.946;2023-09-19T03:24:35;4.43;;;0.68;;
51467;SDS011;37545;45.302;-122.946;2023-09-19T03:27:04;5.57;;;1.23;;
51467;SDS011;37545;45.302;-122.946;2023-09-19T03:29:34;6.18;;;1.15;;
51467;SDS011;37545;45.302;-122.946;2023-09-19T03:32:03;3.97;;;1.00;;
51467;SDS011;37545;45.302;-122.946;2023-09-19T03:34:36;10.43;;;1.40;;
51467;SDS011;37545;45.302;-122.946;2023-09-19T03:37:09;6.80;;;1.33;;
51467;SDS011;37545;45.302;-122.946;2023-09-19T03:39:38;5.85;;;1.67;;
51467;SDS011;37545;45.302;-122.946;2023-09-19T03:42:07;4.82;;;0.98;;
51467;SDS011;37545;45.302;-122.946;2023-09-19T03:44:35;10.90;;;1.58;;
51467;SDS011;37545;45.302;-122.946;2023-09-19T03:47:04;4.75;;;1.25;;
51467;SDS011;37545;45.302;-122.946;2023-09-19T03:49:33;5.25;;;0.98;;
51467;SDS011;37545;45.302;-122.946;2023-09-19T03:52:02;2.78;;;0.80;;
51467;SDS011;37545;45.302;-122.946;2023-09-19T03:54:33;4.13;;;0.90;;
51467;SDS011;37545;45.302;-122.946;2023-09-19T03:57:02;1.80;;;1.00;;
51467;SDS011;37545;45.302;-122.946;2023-09-19T03:59:44;8.07;;;1.00;;
51467;SDS011;37545;45.302;-122.946;2023-09-19T04:02:14;5.88;;;0.75;;
51467;SDS011;37545;45.302;-122.946;2023-09-19T04:04:48;4.75;;;1.05;;
51467;SDS011;37545;45.302;-122.946;2023-09-19T04:07:16;3.10;;;0.82;;
51467;SDS011;37545;45.302;-122.946;2023-09-19T04:09:50;4.63;;;0.93;;
51467;SDS011;37545;45.302;-122.946;2023-09-19T04:12:19;3.90;;;0.55;;
51467;SDS011;37545;45.302;-122.946;2023-09-19T04:14:48;2.70;;;0.73;;
51467;SDS011;37545;45.302;-122.946;2023-09-19T04:17:17;4.07;;;1.10;;
51467;SDS011;37545;45.302;-122.946;2023-09-19T04:19:46;3.70;;;1.42;;
51467;SDS011;37545;45.302;-122.946;2023-09-19T04:22:16;4.93;;;1.27;;
51467;SDS011;37545;45.302;-122.946;2023-09-19T04:24:45;5.60;;;0.90;;
51467;SDS011;37545;45.302;-122.946;2023-09-19T04:27:15;5.38;;;0.68;;
51467;SDS011;37545;45.302;-122.946;2023-09-19T04:29:44;1.85;;;0.52;;
51467;SDS011;37545;45.302;-122.946;2023-09-19T04:32:14;5.53;;;0.98;;
51467;SDS011;37545;45.302;-122.946;2023-09-19T04:34:45;6.35;;;1.02;;
51467;SDS011;37545;45.302;-122.946;2023-09-19T04:37:15;3.55;;;0.93;;
51467;SDS011;37545;45.302;-122.946;2023-09-19T04:39:44;5.32;;;0.98;;
51467;SDS011;37545;45.302;-122.946;2023-09-19T04:42:13;6.57;;;0.80;;
51467;SDS011;37545;45.302;-122.946;2023-09-19T04:44:47;4.15;;;0.60;;
51467;SDS011;37545;45.302;-122.946;2023-09-19T04:47:20;1.48;;;0.40;;
51467;SDS011;37545;45.302;-122.946;2023-09-19T04:49:50;3.28;;;0.65;;
51467;SDS011;37545;45.302;-122.946;2023-09-19T04:52:30;5.63;;;1.02;;
51467;SDS011;37545;45.302;-122.946;2023-09-19T04:54:59;3.15;;;0.70;;
51467;SDS011;37545;45.302;-122.946;2023-09-19T04:57:29;5.05;;;1.15;;
51467;SDS011;37545;45.302;-122.946;2023-09-19T04:59:58;3.30;;;1.15;;
51467;SDS011;37545;45.302;-122.946;2023-09-19T05:02:32;3.40;;;0.85;;
51467;SDS011;37545;45.302;-122.946;2023-09-19T05:05:01;4.35;;;0.73;;
51467;SDS011;37545;45.302;-122.946;2023-09-19T05:07:30;3.17;;;0.60;;
51467;SDS011;37545;45.302;-122.946;2023-09-19T05:09:59;3.75;;;0.85;;
51467;SDS011;37545;45.302;-122.946;2023-09-19T05:12:33;5.07;;;0.95;;
51467;SDS011;37545;45.302;-122.946;2023-09-19T05:15:02;3.08;;;0.63;;
51467;SDS011;37545;45.302;-122.946;2023-09-19T05:17:32;4.65;;;0.73;;
51467;SDS011;37545;45.302;-122.946;2023-09-19T05:20:06;4.05;;;0.77;;
51467;SDS011;37545;45.302;-122.946;2023-09-19T05:22:39;4.20;;;0.52;;
51467;SDS011;37545;45.302;-122.946;2023-09-19T05:25:09;4.20;;;1.00;;
51467;SDS011;37545;45.302;-122.946;2023-09-19T05:27:43;5.75;;;0.93;;
51467;SDS011;37545;45.302;-122.946;2023-09-19T05:30:12;4.07;;;1.10;;
51467;SDS011;37545;45.302;-122.946;2023-09-19T05:32:41;2.70;;;0.70;;
51467;SDS011;37545;45.302;-122.946;2023-09-19T05:35:10;5.25;;;0.65;;
51467;SDS011;37545;45.302;-122.946;2023-09-19T05:37:38;2.33;;;0.65;;
51467;SDS011;37545;45.302;-122.946;2023-09-19T05:40:07;3.50;;;0.68;;
51467;SDS011;37545;45.302;-122.946;2023-09-19T05:42:40;3.22;;;0.50;;
51467;SDS011;37545;45.302;-122.946;2023-09-19T05:45:11;1.38;;;0.60;;
51467;SDS011;37545;45.302;-122.946;2023-09-19T05:47:44;4.57;;;0.43;;
51467;SDS011;37545;45.302;-122.946;2023-09-19T05:50:15;3.72;;;0.80;;
51467;SDS011;37545;45.302;-122.946;2023-09-19T05:52:51;3.35;;;0.70;;
51467;SDS011;37545;45.302;-122.946;2023-09-19T05:55:23;3.80;;;1.13;;
51467;SDS011;37545;45.302;-122.946;2023-09-19T05:57:54;8.60;;;0.73;;
51467;SDS011;37545;45.302;-122.946;2023-09-19T06:00:24;2.00;;;0.77;;
51467;SDS011;37545;45.302;-122.946;2023-09-19T06:02:55;6.22;;;1.05;;
51467;SDS011;37545;45.302;-122.946;2023-09-19T06:05:25;1.77;;;0.50;;
51467;SDS011;37545;45.302;-122.946;2023-09-19T06:07:56;3.58;;;0.70;;
51467;SDS011;37545;45.302;-122.946;2023-09-19T06:10:25;4.70;;;0.93;;
51467;SDS011;37545;45.302;-122.946;2023-09-19T06:12:54;3.38;;;0.98;;
51467;SDS011;37545;45.302;-122.946;2023-09-19T06:15:25;11.75;;;0.93;;
51467;SDS011;37545;45.302;-122.946;2023-09-19T06:17:54;5.22;;;1.02;;
51467;SDS011;37545;45.302;-122.946;2023-09-19T06:20:25;7.65;;;1.00;;
51467;SDS011;37545;45.302;-122.946;2023-09-19T06:22:53;6.10;;;1.08;;
51467;SDS011;37545;45.302;-122.946;2023-09-19T06:25:22;2.78;;;0.82;;
51467;SDS011;37545;45.302;-122.946;2023-09-19T06:27:53;3.60;;;0.85;;
51467;SDS011;37545;45.302;-122.946;2023-09-19T06:30:22;3.83;;;0.80;;
51467;SDS011;37545;45.302;-122.946;2023-09-19T06:35:26;3.72;;;0.70;;
51467;SDS011;37545;45.302;-122.946;2023-09-19T06:37:56;2.72;;;0.73;;
51467;SDS011;37545;45.302;-122.946;2023-09-19T06:40:24;1.48;;;0.50;;
51467;SDS011;37545;45.302;-122.946;2023-09-19T06:42:53;2.92;;;0.73;;
51467;SDS011;37545;45.302;-122.946;2023-09-19T06:45:22;3.95;;;0.93;;
51467;SDS011;37545;45.302;-122.946;2023-09-19T06:47:53;2.78;;;1.08;;
51467;SDS011;37545;45.302;-122.946;2023-09-19T06:50:25;1.73;;;0.47;;
51467;SDS011;37545;45.302;-122.946;2023-09-19T06:52:56;4.57;;;0.85;;
51467;SDS011;37545;45.302;-122.946;2023-09-19T06:55:26;0.80;;;0.40;;
51467;SDS011;37545;45.302;-122.946;2023-09-19T06:57:57;3.70;;;0.50;;
51467;SDS011;37545;45.302;-122.946;2023-09-19T07:00:25;3.70;;;0.95;;
51467;SDS011;37545;45.302;-122.946;2023-09-19T07:02:59;3.47;;;0.65;;
51467;SDS011;37545;45.302;-122.946;2023-09-19T07:05:30;0.93;;;0.50;;
51467;SDS011;37545;45.302;-122.946;2023-09-19T07:07:59;5.30;;;1.42;;
51467;SDS011;37545;45.302;-122.946;2023-09-19T07:10:31;4.05;;;0.75;;
51467;SDS011;37545;45.302;-122.946;2023-09-19T07:13:00;3.10;;;0.80;;
51467;SDS011;37545;45.302;-122.946;2023-09-19T07:15:32;6.32;;;0.93;;
51467;SDS011;37545;45.302;-122.946;2023-09-19T07:18:03;6.43;;;0.90;;
51467;SDS011;37545;45.302;-122.946;2023-09-19T07:20:34;3.83;;;1.17;;
51467;SDS011;37545;45.302;-122.946;2023-09-19T07:23:03;3.50;;;0.55;;
51467;SDS011;37545;45.302;-122.946;2023-09-19T07:25:31;4.47;;;0.60;;
51467;SDS011;37545;45.302;-122.946;2023-09-19T07:28:00;1.45;;;0.47;;
51467;SDS011;37545;45.302;-122.946;2023-09-19T07:30:29;2.83;;;0.95;;
51467;SDS011;37545;45.302;-122.946;2023-09-19T07:32:57;2.97;;;0.60;;
51467;SDS011;37545;45.302;-122.946;2023-09-19T07:35:29;3.78;;;0.52;;
51467;SDS011;37545;45.302;-122.946;2023-09-19T07:37:58;3.67;;;0.63;;
51467;SDS011;37545;45.302;-122.946;2023-09-19T07:40:28;4.85;;;0.90;;
51467;SDS011;37545;45.302;-122.946;2023-09-19T07:42:57;4.68;;;0.95;;
51467;SDS011;37545;45.302;-122.946;2023-09-19T07:45:27;3.17;;;0.50;;
51467;SDS011;37545;45.302;-122.946;2023-09-19T07:47:55;4.65;;;1.08;;
51467;SDS011;37545;45.302;-122.946;2023-09-19T07:50:24;6.57;;;0.95;;
51467;SDS011;37545;45.302;-122.946;2023-09-19T07:52:54;4.07;;;0.88;;
51467;SDS011;37545;45.302;-122.946;2023-09-19T07:55:24;7.07;;;0.70;;
51467;SDS011;37545;45.302;-122.946;2023-09-19T07:57:53;4.18;;;0.68;;
51467;SDS011;37545;45.302;-122.946;2023-09-19T08:00:21;2.70;;;0.70;;
51467;SDS011;37545;45.302;-122.946;2023-09-19T08:02:50;1.70;;;0.63;;
51467;SDS011;37545;45.302;-122.946;2023-09-19T08:05:19;5.25;;;0.75;;
51467;SDS011;37545;45.302;-122.946;2023-09-19T08:07:48;4.20;;;0.80;;
51467;SDS011;37545;45.302;-122.946;2023-09-19T08:10:18;3.03;;;0.77;;
51467;SDS011;37545;45.302;-122.946;2023-09-19T08:12:47;5.13;;;0.80;;
51467;SDS011;37545;45.302;-122.946;2023-09-19T08:15:22;5.63;;;1.17;;
51467;SDS011;37545;45.302;-122.946;2023-09-19T08:17:51;1.50;;;0.50;;
51467;SDS011;37545;45.302;-122.946;2023-09-19T08:20:19;5.30;;;0.60;;
51467;SDS011;37545;45.302;-122.946;2023-09-19T08:22:48;2.63;;;0.47;;
51467;SDS011;37545;45.302;-122.946;2023-09-19T08:25:21;2.70;;;0.75;;
51467;SDS011;37545;45.302;-122.946;2023-09-19T08:27:58;3.58;;;0.88;;
51467;SDS011;37545;45.302;-122.946;2023-09-19T08:30:31;3.85;;;0.70;;
51467;SDS011;37545;45.302;-122.946;2023-09-19T08:33:00;3.42;;;1.15;;
51467;SDS011;37545;45.302;-122.946;2023-09-19T08:35:30;3.22;;;0.60;;
51467;SDS011;37545;45.302;-122.946;2023-09-19T08:37:58;6.43;;;1.05;;
51467;SDS011;37545;45.302;-122.946;2023-09-19T08:40:31;1.85;;;0.40;;
51467;SDS011;37545;45.302;-122.946;2023-09-19T08:43:00;4.47;;;0.75;;
51467;SDS011;37545;45.302;-122.946;2023-09-19T08:45:29;3.88;;;0.77;;
51467;SDS011;37545;45.302;-122.946;2023-09-19T08:48:02;4.50;;;0.73;;
51467;SDS011;37545;45.302;-122.946;2023-09-19T08:50:43;4.10;;;0.67;;
51467;SDS011;37545;45.302;-122.946;2023-09-19T08:53:19;4.07;;;1.00;;
51467;SDS011;37545;45.302;-122.946;2023-09-19T08:55:54;2.45;;;0.40;;
51467;SDS011;37545;45.302;-122.946;2023-09-19T08:58:25;3.15;;;0.63;;
51467;SDS011;37545;45.302;-122.946;2023-09-19T09:01:00;2.80;;;0.60;;
51467;SDS011;37545;45.302;-122.946;2023-09-19T09:03:32;2.57;;;0.80;;
51467;SDS011;37545;45.302;-122.946;2023-09-19T09:06:02;5.13;;;0.95;;
51467;SDS011;37545;45.302;-122.946;2023-09-19T09:08:30;2.60;;;0.63;;
51467;SDS011;37545;45.302;-122.946;2023-09-19T09:11:04;5.88;;;0.63;;
51467;SDS011;37545;45.302;-122.946;2023-09-19T09:13:41;4.40;;;0.70;;
51467;SDS011;37545;45.302;-122.946;2023-09-19T09:16:19;3.55;;;0.80;;
51467;SDS011;37545;45.302;-122.946;2023-09-19T09:18:51;5.43;;;0.82;;
51467;SDS011;37545;45.302;-122.946;2023-09-19T09:21:20;1.98;;;0.52;;
51467;SDS011;37545;45.302;-122.946;2023-09-19T09:23:49;2.38;;;0.52;;
51467;SDS011;37545;45.302;-122.946;2023-09-19T09:26:24;3.05;;;0.50;;
51467;SDS011;37545;45.302;-122.946;2023-09-19T09:29:10;8.13;;;1.05;;
51467;SDS011;37545;45.302;-122.946;2023-09-19T09:31:39;2.40;;;0.73;;
51467;SDS011;37545;45.302;-122.946;2023-09-19T09:34:08;8.80;;;1.05;;
51467;SDS011;37545;45.302;-122.946;2023-09-19T09:36:39;3.40;;;0.60;;
51467;SDS011;37545;45.302;-122.946;2023-09-19T09:39:09;3.08;;;0.63;;
51467;SDS011;37545;45.302;-122.946;2023-09-19T09:41:52;6.85;;;1.05;;
51467;SDS011;37545;45.302;-122.946;2023-09-19T09:44:20;4.40;;;0.70;;
51467;SDS011;37545;45.302;-122.946;2023-09-19T09:46:49;7.70;;;0.60;;
51467;SDS011;37545;45.302;-122.946;2023-09-19T09:49:48;4.78;;;0.77;;
51467;SDS011;37545;45.302;-122.946;2023-09-19T09:52:20;7.10;;;1.20;;
51467;SDS011;37545;45.302;-122.946;2023-09-19T09:54:59;4.97;;;0.63;;
51467;SDS011;37545;45.302;-122.946;2023-09-19T09:57:33;4.57;;;0.75;;
51467;SDS011;37545;45.302;-122.946;2023-09-19T10:00:02;3.20;;;0.50;;
51467;SDS011;37545;45.302;-122.946;2023-09-19T10:02:46;4.03;;;0.75;;
51467;SDS011;37545;45.302;-122.946;2023-09-19T10:05:15;4.40;;;0.65;;
51467;SDS011;37545;45.302;-122.946;2023-09-19T10:07:58;3.60;;;0.60;;
51467;SDS011;37545;45.302;-122.946;2023-09-19T10:10:44;2.47;;;0.70;;
51467;SDS011;37545;45.302;-122.946;2023-09-19T10:13:21;3.58;;;0.63;;
51467;SDS011;37545;45.302;-122.946;2023-09-19T10:15:53;3.13;;;0.95;;
51467;SDS011;37545;45.302;-122.946;2023-09-19T10:18:24;3.53;;;0.90;;
51467;SDS011;37545;45.302;-122.946;2023-09-19T10:20:53;4.72;;;0.73;;
51467;SDS011;37545;45.302;-122.946;2023-09-19T10:23:23;5.32;;;0.70;;
51467;SDS011;37545;45.302;-122.946;2023-09-19T10:28:26;3.20;;;0.40;;
51467;SDS011;37545;45.302;-122.946;2023-09-19T10:30:58;2.33;;;0.52;;
51467;SDS011;37545;45.302;-122.946;2023-09-19T10:33:28;4.15;;;0.82;;
51467;SDS011;37545;45.302;-122.946;2023-09-19T10:36:07;3.72;;;0.47;;
51467;SDS011;37545;45.302;-122.946;2023-09-19T10:38:38;4.65;;;0.85;;
51467;SDS011;37545;45.302;-122.946;2023-09-19T10:41:11;2.70;;;0.30;;
51467;SDS011;37545;45.302;-122.946;2023-09-19T10:43:48;2.30;;;0.65;;
51467;SDS011;37545;45.302;-122.946;2023-09-19T10:46:21;2.53;;;0.47;;
51467;SDS011;37545;45.302;-122.946;2023-09-19T10:48:51;0.55;;;0.30;;
51467;SDS011;37545;45.302;-122.946;2023-09-19T10:51:21;5.22;;;0.55;;
51467;SDS011;37545;45.302;-122.946;2023-09-19T10:53:57;2.53;;;0.70;;
51467;SDS011;37545;45.302;-122.946;2023-09-19T10:56:36;5.20;;;0.60;;
51467;SDS011;37545;45.302;-122.946;2023-09-19T10:59:09;7.07;;;0.57;;
51467;SDS011;37545;45.302;-122.946;2023-09-19T11:01:44;1.95;;;0.52;;
51467;SDS011;37545;45.302;-122.946;2023-09-19T11:04:23;1.13;;;0.32;;
51467;SDS011;37545;45.302;-122.946;2023-09-19T11:07:03;1.45;;;0.50;;
51467;SDS011;37545;45.302;-122.946;2023-09-19T11:09:48;1.55;;;0.40;;
51467;SDS011;37545;45.302;-122.946;2023-09-19T11:21:52;2.38;;;0.50;;
51467;SDS011;37545;45.302;-122.946;2023-09-19T11:27:12;1.17;;;0.28;;
51467;SDS011;37545;45.302;-122.946;2023-09-19T11:29:45;3.55;;;0.60;;
51467;SDS011;37545;45.302;-122.946;2023-09-19T11:32:14;6.75;;;1.20;;
51467;SDS011;37545;45.302;-122.946;2023-09-19T11:34:49;6.65;;;1.08;;
51467;SDS011;37545;45.302;-122.946;2023-09-19T11:43:30;2.30;;;0.30;;
51467;SDS011;37545;45.302;-122.946;2023-09-19T11:46:08;4.35;;;0.63;;
51467;SDS011;37545;45.302;-122.946;2023-09-19T11:48:40;4.28;;;0.70;;
51467;SDS011;37545;45.302;-122.946;2023-09-19T11:51:18;1.63;;;0.68;;
51467;SDS011;37545;45.302;-122.946;2023-09-19T11:53:52;2.35;;;0.55;;
51467;SDS011;37545;45.302;-122.946;2023-09-19T11:56:22;0.88;;;0.22;;
51467;SDS011;37545;45.302;-122.946;2023-09-19T11:58:53;2.60;;;0.70;;
51467;SDS011;37545;45.302;-122.946;2023-09-19T12:01:24;4.78;;;1.13;;
51467;SDS011;37545;45.302;-122.946;2023-09-19T12:06:27;3.47;;;0.50;;
51467;SDS011;37545;45.302;-122.946;2023-09-19T12:08:58;5.65;;;1.08;;
51467;SDS011;37545;45.302;-122.946;2023-09-19T12:11:29;4.07;;;0.82;;
51467;SDS011;37545;45.302;-122.946;2023-09-19T12:14:01;3.20;;;0.32;;
51467;SDS011;37545;45.302;-122.946;2023-09-19T12:16:30;7.53;;;0.60;;
51467;SDS011;37545;45.302;-122.946;2023-09-19T12:18:59;4.22;;;0.70;;
51467;SDS011;37545;45.302;-122.946;2023-09-19T12:21:54;7.93;;;1.10;;
51467;SDS011;37545;45.302;-122.946;2023-09-19T12:24:25;5.18;;;1.02;;
51467;SDS011;37545;45.302;-122.946;2023-09-19T12:27:00;2.33;;;0.63;;
51467;SDS011;37545;45.302;-122.946;2023-09-19T12:29:31;3.22;;;0.40;;
51467;SDS011;37545;45.302;-122.946;2023-09-19T12:32:02;1.23;;;0.40;;
51467;SDS011;37545;45.302;-122.946;2023-09-19T12:34:32;4.60;;;0.77;;
51467;SDS011;37545;45.302;-122.946;2023-09-19T12:37:07;2.22;;;0.50;;
51467;SDS011;37545;45.302;-122.946;2023-09-19T12:39:42;0.85;;;0.20;;
51467;SDS011;37545;45.302;-122.946;2023-09-19T12:42:14;3.22;;;0.60;;
51467;SDS011;37545;45.302;-122.946;2023-09-19T12:44:44;1.00;;;0.50;;
51467;SDS011;37545;45.302;-122.946;2023-09-19T12:47:14;7.07;;;1.08;;
51467;SDS011;37545;45.302;-122.946;2023-09-19T12:52:52;3.10;;;0.68;;
51467;SDS011;37545;45.302;-122.946;2023-09-19T12:55:26;1.63;;;0.70;;
51467;SDS011;37545;45.302;-122.946;2023-09-19T12:58:08;2.17;;;0.73;;
51467;SDS011;37545;45.302;-122.946;2023-09-19T13:00:41;1.67;;;0.55;;
51467;SDS011;37545;45.302;-122.946;2023-09-19T13:03:14;5.72;;;0.75;;
51467;SDS011;37545;45.302;-122.946;2023-09-19T13:05:50;4.47;;;0.68;;
51467;SDS011;37545;45.302;-122.946;2023-09-19T13:08:30;3.58;;;0.65;;
51467;SDS011;37545;45.302;-122.946;2023-09-19T13:11:01;2.42;;;0.50;;
51467;SDS011;37545;45.302;-122.946;2023-09-19T13:13:35;7.03;;;0.65;;
51467;SDS011;37545;45.302;-122.946;2023-09-19T13:16:05;4.28;;;0.77;;
51467;SDS011;37545;45.302;-122.946;2023-09-19T13:18:44;5.47;;;0.55;;
51467;SDS011;37545;45.302;-122.946;2023-09-19T13:21:16;5.15;;;1.10;;
51467;SDS011;37545;45.302;-122.946;2023-09-19T13:23:56;6.10;;;0.90;;
51467;SDS011;37545;45.302;-122.946;2023-09-19T13:26:44;5.50;;;0.85;;
51467;SDS011;37545;45.302;-122.946;2023-09-19T13:29:13;2.45;;;0.47;;
51467;SDS011;37545;45.302;-122.946;2023-09-19T13:31:45;1.63;;;0.82;;
51467;SDS011;37545;45.302;-122.946;2023-09-19T13:34:18;1.80;;;0.82;;
51467;SDS011;37545;45.302;-122.946;2023-09-19T13:36:47;2.65;;;0.77;;
51467;SDS011;37545;45.302;-122.946;2023-09-19T13:39:17;4.40;;;1.08;;
51467;SDS011;37545;45.302;-122.946;2023-09-19T13:41:46;1.55;;;0.63;;
51467;SDS011;37545;45.302;-122.946;2023-09-19T13:44:15;3.28;;;0.70;;
51467;SDS011;37545;45.302;-122.946;2023-09-19T13:46:46;2.58;;;0.55;;
51467;SDS011;37545;45.302;-122.946;2023-09-19T13:49:16;2.88;;;0.70;;
51467;SDS011;37545;45.302;-122.946;2023-09-19T13:51:45;6.57;;;0.70;;
51467;SDS011;37545;45.302;-122.946;2023-09-19T13:54:16;4.32;;;0.77;;
51467;SDS011;37545;45.302;-122.946;2023-09-19T13:56:49;2.92;;;0.75;;
51467;SDS011;37545;45.302;-122.946;2023-09-19T13:59:18;4.65;;;0.77;;
51467;SDS011;37545;45.302;-122.946;2023-09-19T14:01:49;2.17;;;0.47;;
51467;SDS011;37545;45.302;-122.946;2023-09-19T14:04:19;3.70;;;0.80;;
51467;SDS011;37545;45.302;-122.946;2023-09-19T14:06:48;4.97;;;1.13;;
51467;SDS011;37545;45.302;-122.946;2023-09-19T14:09:16;3.72;;;0.80;;
51467;SDS011;37545;45.302;-122.946;2023-09-19T14:11:46;5.75;;;1.25;;
51467;SDS011;37545;45.302;-122.946;2023-09-19T14:14:18;4.68;;;0.93;;
51467;SDS011;37545;45.302;-122.946;2023-09-19T14:16:46;3.03;;;0.95;;
51467;SDS011;37545;45.302;-122.946;2023-09-19T14:19:15;5.18;;;0.98;;
51467;SDS011;37545;45.302;-122.946;2023-09-19T14:21:44;3.17;;;1.08;;
51467;SDS011;37545;45.302;-122.946;2023-09-19T14:24:16;3.60;;;1.10;;
51467;SDS011;37545;45.302;-122.946;2023-09-19T14:26:48;5.22;;;0.75;;
51467;SDS011;37545;45.302;-122.946;2023-09-19T14:29:17;8.65;;;1.48;;
51467;SDS011;37545;45.302;-122.946;2023-09-19T14:31:46;3.22;;;1.05;;
51467;SDS011;37545;45.302;-122.946;2023-09-19T14:34:17;4.68;;;1.08;;
51467;SDS011;37545;45.302;-122.946;2023-09-19T14:36:46;3.83;;;1.60;;
51467;SDS011;37545;45.302;-122.946;2023-09-19T14:39:14;9.95;;;1.67;;
51467;SDS011;37545;45.302;-122.946;2023-09-19T14:41:45;5.50;;;0.82;;
51467;SDS011;37545;45.302;-122.946;2023-09-19T14:44:15;8.98;;;1.77;;
51467;SDS011;37545;45.302;-122.946;2023-09-19T14:46:45;3.35;;;0.93;;
51467;SDS011;37545;45.302;-122.946;2023-09-19T14:49:14;8.00;;;0.88;;
51467;SDS011;37545;45.302;-122.946;2023-09-19T14:51:43;4.93;;;1.33;;
51467;SDS011;37545;45.302;-122.946;2023-09-19T14:54:13;5.20;;;1.00;;
51467;SDS011;37545;45.302;-122.946;2023-09-19T14:56:42;2.08;;;1.02;;
51467;SDS011;37545;45.302;-122.946;2023-09-19T14:59:11;6.47;;;1.58;;
51467;SDS011;37545;45.302;-122.946;2023-09-19T15:01:43;5.50;;;0.95;;
51467;SDS011;37545;45.302;-122.946;2023-09-19T15:04:11;7.25;;;1.25;;
51467;SDS011;37545;45.302;-122.946;2023-09-19T15:06:40;6.90;;;1.40;;